createdAt,value
2023-04-06T00:00:00.681Z,0.4
2023-04-06T00:05:00.542Z,0.2
2023-04-06T00:10:00.581Z,0.6
2023-04-06T00:15:00.746Z,0.1
2023-04-06T00:20:00.605Z,0.8
2023-04-06T00:25:00.599Z,0.3
2023-04-06T00:30:00.592Z,0.9
2023-04-06T00:35:00.600Z,0.8
2023-04-06T00:40:00.864Z,0.6
2023-04-06T00:45:00.802Z,0.9
2023-04-06T00:50:00.621Z,0.1
2023-04-06T00:55:00.532Z,0.2
2023-04-06T01:00:00.602Z,0.5
2023-04-06T01:05:00.705Z,0.3
2023-04-06T01:10:00.596Z,0.5
2023-04-06T01:15:00.569Z,1.0
2023-04-06T01:20:00.593Z,0.7
2023-04-06T01:25:00.597Z,0.5
2023-04-06T01:30:00.608Z,0.8
2023-04-06T01:35:00.757Z,0.1
2023-04-06T01:40:00.753Z,0.1
2023-04-06T01:45:00.556Z,0.0
2023-04-06T01:50:00.577Z,0.0
2023-04-06T01:55:00.533Z,0.0
2023-04-06T02:00:00.610Z,0.0
2023-04-06T02:05:00.601Z,0.0
2023-04-06T02:10:00.581Z,0.0
2023-04-06T02:15:00.569Z,0.0
2023-04-06T02:20:00.566Z,0.0
2023-04-06T02:25:00.597Z,0.0
2023-04-06T02:30:00.613Z,0.0
2023-04-06T02:35:00.620Z,0.0
2023-04-06T02:40:00.661Z,0.0
2023-04-06T02:45:00.599Z,0.0
2023-04-06T02:50:00.670Z,0.0
2023-04-06T02:55:00.543Z,0.0
2023-04-06T03:00:00.681Z,0.0
2023-04-06T03:05:00.665Z,0.0
2023-04-06T03:10:00.613Z,0.0
2023-04-06T03:15:00.543Z,0.0
2023-04-06T03:20:00.898Z,0.0
2023-04-06T03:25:03.902Z,0.0
2023-04-06T03:30:00.675Z,0.0
2023-04-06T03:35:00.548Z,0.0
2023-04-06T03:40:00.609Z,0.0
2023-04-06T03:45:00.640Z,0.0
2023-04-06T03:50:00.598Z,0.0
2023-04-06T03:55:00.613Z,0.0
2023-04-06T04:00:00.603Z,0.0
2023-04-06T04:05:00.599Z,0.0
2023-04-06T04:10:00.783Z,0.0
2023-04-06T04:15:00.593Z,0.0
2023-04-06T04:20:00.593Z,0.0
2023-04-06T04:25:00.705Z,0.0
2023-04-06T04:30:00.671Z,0.0
2023-04-06T04:35:00.621Z,0.0
2023-04-06T04:40:00.633Z,0.0
2023-04-06T04:45:00.661Z,0.0
2023-04-06T04:50:00.552Z,0.0
2023-04-06T04:55:00.583Z,0.0
2023-04-06T05:00:00.681Z,0.0
2023-04-06T05:05:00.781Z,0.0
2023-04-06T05:10:00.606Z,0.0
2023-04-06T05:15:00.639Z,0.0
2023-04-06T05:20:00.720Z,0.0
2023-04-06T05:25:00.591Z,0.0
2023-04-06T05:30:00.670Z,0.0
2023-04-06T05:35:00.894Z,0.0
2023-04-06T05:40:00.614Z,0.0
2023-04-06T05:45:00.648Z,0.0
2023-04-06T05:50:00.733Z,0.0
2023-04-06T05:55:00.628Z,0.0
2023-04-06T06:00:00.776Z,0.0
2023-04-06T06:05:00.719Z,0.8
2023-04-06T06:10:00.669Z,0.2
2023-04-06T06:15:00.638Z,0.8
2023-04-06T06:20:00.626Z,3.4
2023-04-06T06:25:00.590Z,0.9
2023-04-06T06:30:00.669Z,0.8
2023-04-06T06:35:00.712Z,2.4
2023-04-06T06:40:00.680Z,0.6
2023-04-06T06:45:00.659Z,3.5
2023-04-06T06:50:00.647Z,1.3
2023-04-06T06:55:00.536Z,2.5
2023-04-06T07:00:00.856Z,1.3
2023-04-06T07:05:00.613Z,0.1
2023-04-06T07:10:00.605Z,1.0
2023-04-06T07:15:00.618Z,0.7
2023-04-06T07:20:00.658Z,1.7
2023-04-06T07:25:00.590Z,4.5
2023-04-06T07:30:00.627Z,2.4
2023-04-06T07:35:00.731Z,3.2
2023-04-06T07:40:00.661Z,2.7
2023-04-06T07:45:00.690Z,3.6
2023-04-06T07:50:00.644Z,4.7
2023-04-06T07:55:00.644Z,5.0
2023-04-06T08:00:00.658Z,3.2
2023-04-06T08:05:00.652Z,3.9
2023-04-06T08:10:00.603Z,3.8
2023-04-06T08:15:00.645Z,1.8
2023-04-06T08:20:00.660Z,3.6
2023-04-06T08:25:00.831Z,7.6
2023-04-06T08:30:00.628Z,1.9
2023-04-06T08:35:00.652Z,8.3
2023-04-06T08:40:00.608Z,5.6
2023-04-06T08:45:00.638Z,6.4
2023-04-06T08:50:00.643Z,1.9
2023-04-06T08:55:00.653Z,3.9
2023-04-06T09:00:00.650Z,9.9
2023-04-06T09:05:00.817Z,2.8
2023-04-06T09:10:00.668Z,5.3
2023-04-06T09:15:00.621Z,4.9
2023-04-06T09:20:00.650Z,4.4
2023-04-06T09:25:00.676Z,5.6
2023-04-06T09:30:00.942Z,3.3
2023-04-06T09:35:00.671Z,7.2
2023-04-06T09:40:00.637Z,2.3
2023-04-06T09:45:00.619Z,2.9
2023-04-06T09:50:00.903Z,3.7
2023-04-06T09:55:00.644Z,6.3
2023-04-06T10:00:00.678Z,5.1
2023-04-06T10:05:00.722Z,5.9
2023-04-06T10:10:00.644Z,4.3
2023-04-06T10:15:00.759Z,1.9
2023-04-06T10:20:00.593Z,4.5
2023-04-06T10:25:00.560Z,2.5
2023-04-06T10:30:00.743Z,2.5
2023-04-06T10:35:00.696Z,1.4
2023-04-06T10:40:01.003Z,4.7
2023-04-06T10:45:00.765Z,7.3
2023-04-06T10:50:00.692Z,7.1
2023-04-06T10:55:00.608Z,6.0
2023-04-06T11:00:00.640Z,2.2
2023-04-06T11:05:00.687Z,4.7
2023-04-06T11:10:15.403Z,8.0
2023-04-06T11:15:00.588Z,1.5
2023-04-06T11:20:00.634Z,8.8
2023-04-06T11:25:00.751Z,5.6
2023-04-06T11:30:00.634Z,5.2
2023-04-06T11:35:00.604Z,7.5
2023-04-06T11:40:00.607Z,6.6
2023-04-06T11:45:00.696Z,1.7
2023-04-06T11:50:00.645Z,10.0
2023-04-06T11:55:00.617Z,7.2
2023-04-06T12:00:00.703Z,2.8
2023-04-06T12:05:00.581Z,3.7
2023-04-06T12:10:00.584Z,6.8
2023-04-06T12:15:00.621Z,3.3
2023-04-06T12:20:05.943Z,8.3
2023-04-06T12:25:00.737Z,4.8
2023-04-06T12:30:00.777Z,7.5
2023-04-06T12:35:00.594Z,5.0
2023-04-06T12:40:00.658Z,0.6
2023-04-06T12:45:00.579Z,2.2
2023-04-06T12:50:00.665Z,7.2
2023-04-06T12:55:00.741Z,7.3
2023-04-06T13:00:00.925Z,2.4
2023-04-06T13:05:00.773Z,4.9
2023-04-06T13:10:00.817Z,4.7
2023-04-06T13:15:00.740Z,1.4
2023-04-06T13:20:00.736Z,4.4
2023-04-06T13:25:00.565Z,7.0
2023-04-06T13:30:00.599Z,2.1
2023-04-06T13:35:00.600Z,0.8
2023-04-06T13:40:00.665Z,6.9
2023-04-06T13:45:00.650Z,6.4
2023-04-06T13:50:00.760Z,3.5
2023-04-06T13:55:00.562Z,5.6
2023-04-06T14:00:01.519Z,3.0
2023-04-06T14:05:00.548Z,5.6
2023-04-06T14:10:00.768Z,8.6
2023-04-06T14:15:00.753Z,5.7
2023-04-06T14:20:00.676Z,6.4
2023-04-06T14:25:00.634Z,6.7
2023-04-06T14:30:00.667Z,5.7
2023-04-06T14:35:00.764Z,6.0
2023-04-06T14:45:01.257Z,10.4
2023-04-06T14:50:00.719Z,4.5
2023-04-06T14:55:00.576Z,3.7
2023-04-06T15:00:00.717Z,9.4
2023-04-06T15:05:00.688Z,7.7
2023-04-06T15:10:00.650Z,4.7
2023-04-06T15:20:00.557Z,2.6
2023-04-06T15:25:00.427Z,9.8
2023-04-06T15:30:00.956Z,3.7
2023-04-06T15:35:00.553Z,7.7
2023-04-06T15:40:01.899Z,9.3
2023-04-06T15:45:00.561Z,9.0
2023-04-06T15:50:00.433Z,2.2
2023-04-06T15:55:00.611Z,3.8
2023-04-06T16:00:00.598Z,9.0
2023-04-06T16:05:00.438Z,9.3
2023-04-06T16:10:00.564Z,6.4
2023-04-06T16:15:00.461Z,3.2
2023-04-06T16:20:00.811Z,8.7
2023-04-06T16:25:00.456Z,5.4
2023-04-06T16:35:00.596Z,5.7
2023-04-06T16:40:00.637Z,8.2
2023-04-06T16:45:00.563Z,5.9
2023-04-06T16:50:10.329Z,5.3
2023-04-06T16:55:00.518Z,8.0
2023-04-06T17:00:00.777Z,3.8
2023-04-06T17:05:00.527Z,3.0
2023-04-06T17:10:00.506Z,3.3
2023-04-06T17:15:00.434Z,6.3
2023-04-06T17:20:00.441Z,4.9
2023-04-06T17:25:00.461Z,1.6
2023-04-06T17:30:00.518Z,2.4
2023-04-06T17:35:00.435Z,1.9
2023-04-06T17:40:00.617Z,3.0
2023-04-06T17:45:00.523Z,3.3
2023-04-06T17:50:00.415Z,2.8
2023-04-06T17:55:00.440Z,2.4
2023-04-06T18:00:00.427Z,2.2
2023-04-06T18:05:00.417Z,1.4
2023-04-06T18:10:00.505Z,1.9
2023-04-06T18:15:00.433Z,1.8
2023-04-06T18:20:00.450Z,3.5
2023-04-06T18:25:00.450Z,2.8
2023-04-06T18:30:00.468Z,2.3
2023-04-06T18:35:00.418Z,2.0
2023-04-06T18:40:00.509Z,1.2
2023-04-06T18:45:00.378Z,2.8
2023-04-06T18:50:00.496Z,2.7
2023-04-06T18:55:00.418Z,2.1
2023-04-06T19:00:00.444Z,1.4
2023-04-06T19:05:00.729Z,1.8
2023-04-06T19:10:00.441Z,1.7
2023-04-06T19:15:00.465Z,1.7
2023-04-06T19:20:00.439Z,1.4
2023-04-06T19:25:00.637Z,1.5
2023-04-06T19:30:00.485Z,1.6
2023-04-06T19:35:00.607Z,0.9
2023-04-06T19:40:00.446Z,0.1
2023-04-06T19:45:00.436Z,0.0
2023-04-06T19:50:00.438Z,0.0
2023-04-06T19:55:00.498Z,0.1
2023-04-06T20:00:00.533Z,0.0
2023-04-06T20:05:00.446Z,0.0
2023-04-06T20:10:00.436Z,0.0
2023-04-06T20:15:00.448Z,0.0
2023-04-06T20:20:00.555Z,0.0
2023-04-06T20:25:00.391Z,0.0
2023-04-06T20:30:00.442Z,0.0
2023-04-06T20:35:00.506Z,0.0
2023-04-06T20:40:00.643Z,0.0
2023-04-06T20:45:00.467Z,0.0
2023-04-06T20:50:00.441Z,0.0
2023-04-06T20:55:00.434Z,0.0
2023-04-06T21:00:00.430Z,0.0
2023-04-06T21:05:00.453Z,0.0
2023-04-06T21:10:00.488Z,0.0
2023-04-06T21:15:00.402Z,0.0
2023-04-06T21:20:00.420Z,0.0
2023-04-06T21:25:00.463Z,0.0
2023-04-06T21:30:00.485Z,0.0
2023-04-06T21:35:00.413Z,0.0
2023-04-06T21:40:00.436Z,0.0
2023-04-06T21:45:00.441Z,0.0
2023-04-06T21:50:00.449Z,0.0
2023-04-06T21:55:00.435Z,0.0
2023-04-06T22:00:00.510Z,0.0
2023-04-06T22:05:00.729Z,0.0
2023-04-06T22:10:00.426Z,0.0
2023-04-06T22:15:00.535Z,0.0
2023-04-06T22:20:00.540Z,0.0
2023-04-06T22:25:00.441Z,0.0
2023-04-06T22:30:00.421Z,0.0
2023-04-06T22:35:00.529Z,0.0
2023-04-06T22:40:00.424Z,0.0
2023-04-06T22:45:00.446Z,0.0
2023-04-06T22:50:00.438Z,0.0
2023-04-06T22:55:00.472Z,0.0
2023-04-06T23:00:00.408Z,0.0
2023-04-06T23:05:00.428Z,0.0
2023-04-06T23:10:00.844Z,0.0
2023-04-06T23:15:00.415Z,0.0
2023-04-06T23:20:00.407Z,0.0
2023-04-06T23:25:00.571Z,0.0
2023-04-06T23:30:00.465Z,0.0
2023-04-06T23:35:00.455Z,0.0
2023-04-06T23:40:00.582Z,0.0
2023-04-06T23:45:00.500Z,0.0
2023-04-06T23:50:00.396Z,0.0
2023-04-06T23:55:00.474Z,0.9
